Flight Track Log - Related Links

Times and Time Zones

All times are in EDT time to prevent confusion due to time zone crossing. See the N3690D flight status page for this flight to view local times or setup timezone preferences in your user account.

Time Position Orientation Groundspeed Altitude Reporting Facility
EDT Latitude Longitude Course Direction KTS MPH feet Rate Location/Type
Wed 10:08:00 AM 32.4519 -81.0156 278° West  Level FlightAware Approximate
Wed 10:09:00 AM 32.4598 -81.0797 278° West  Level FlightAware Approximate
Wed 10:10:00 AM 32.4677 -81.1437 278° West  Level FlightAware Approximate
Wed 10:11:00 AM 32.4755 -81.2078 278° West  Level FlightAware Approximate
Wed 10:12:00 AM 32.4833 -81.2719 278° West  Level FlightAware Approximate
Wed 10:13:00 AM 32.4910 -81.3360 278° West  Level FlightAware Approximate
Wed 10:14:00 AM 32.4987 -81.4001 278° West  Level FlightAware Approximate
Wed 10:15:00 AM 32.5064 -81.4642 278° West  Level FlightAware Approximate
Wed 10:16:00 AM 32.5141 -81.5283 278° West  Level FlightAware Approximate
Wed 10:16:38 AM 32.5019 -81.3778 279° West 175 201 6,000  Level Jacksonville Center
Wed 10:17:00 AM 32.5225 -81.5923 279° West  Level FlightAware Approximate
Wed 10:17:38 AM 32.5069 -81.4392 276° West 175 201 6,000  Level Jacksonville Center
Wed 10:18:00 AM 32.5313 -81.6563 279° West  Level FlightAware Approximate
Wed 10:18:38 AM 32.5158 -81.4981 280° West 175 201 6,000  Level Jacksonville Center
Wed 10:19:00 AM 32.5400 -81.7202 279° West  Level FlightAware Approximate
Wed 10:19:38 AM 32.5206 -81.5475 276° West 175 201 6,000  Level Jacksonville Center
Wed 10:20:00 AM 32.5487 -81.7842 279° West  Level FlightAware Approximate
Wed 10:20:38 AM 32.5294 -81.6089 280° West 181 208 6,000  Level Jacksonville Center
Wed 10:21:00 AM 32.5574 -81.8482 279° West  Level FlightAware Approximate
Wed 10:21:38 AM 32.5322 -81.6656 273° West 176 203 6,000  Level Jacksonville Center
Wed 10:22:38 AM 32.5222 -81.7147 256° West 176 203 6,000  Level Jacksonville Center
Wed 10:23:38 AM 32.5103 -81.7767 257° West 181 208 6,000  Level Jacksonville Center
Wed 10:25:09 AM 32.4975 -81.8617 260° West 176 203 6,000  Level Atlanta Center
Wed 10:26:09 AM 32.4881 -81.9161 258° West 176 203 6,000  Level Atlanta Center
Wed 10:27:09 AM 32.4786 -81.9731 259° West 181 208 6,000  Level Atlanta Center
Wed 10:28:09 AM 32.4669 -82.0300 256° West 181 208 6,000  Level Atlanta Center
Wed 10:29:10 AM 32.4575 -82.0892 259° West 181 208 6,000  Level Atlanta Center
Wed 10:30:09 AM 32.4500 -82.1461 261° West 181 208 6,000  Level Atlanta Center
Wed 10:31:09 AM 32.4675 -82.1972 292° West 176 203 6,000  Level Atlanta Center
Wed 10:32:09 AM 32.4789 -82.2536 283° West 176 203 6,000  Level Atlanta Center
Wed 10:33:09 AM 32.4900 -82.3028 285° West 176 203 6,000  Level Atlanta Center
Wed 10:34:09 AM 32.4928 -82.3594 273° West 183 211 6,000  Level Atlanta Center
Wed 10:35:09 AM 32.5019 -82.4133 281° West 178 205 6,000  Level Atlanta Center
Wed 10:36:09 AM 32.5089 -82.4722 278° West 178 205 6,000  Level Atlanta Center
Wed 10:37:09 AM 32.5181 -82.5264 281° West 178 205 6,000  Level Atlanta Center
Wed 10:38:09 AM 32.5269 -82.5828 281° West 178 205 6,000  Level Atlanta Center
Wed 10:39:09 AM 32.5339 -82.6394 278° West 183 211 6,000  Level Atlanta Center
Wed 10:40:09 AM 32.5428 -82.6958 281° West 176 203 6,000  Level Atlanta Center
Wed 10:41:09 AM 32.5517 -82.7500 281° West 176 203 6,000  Level Atlanta Center
Wed 10:42:09 AM 32.5586 -82.8067 278° West 181 208 6,000  Level Atlanta Center
Wed 10:43:09 AM 32.5697 -82.8631 283° West 181 208 6,000  Level Atlanta Center
Wed 10:44:09 AM 32.5825 -82.9147 286° West 181 208 6,000  Level Atlanta Center
Wed 10:45:09 AM 32.5936 -82.9764 282° West 187 215 6,000  Level Atlanta Center
Wed 10:46:09 AM 32.6044 -83.0278 284° West 180 207 6,000  Level Atlanta Center
Wed 10:48:21 AM 32.6333 -83.1500 286° West 175 201 6,000  Level Atlanta TRACON
Wed 10:49:21 AM 32.6500 -83.2000 292° West 177 204 6,000  Level Atlanta TRACON
Wed 10:50:15 AM 32.6500 -83.2667 270° West 177 204 6,000  Level Atlanta TRACON
Wed 10:52:21 AM 32.6833 -83.3667 292° West 180 207 6,000  Level Atlanta TRACON
Wed 10:53:21 AM 32.6833 -83.4333 270° West 177 204 6,000  Level Atlanta TRACON
Wed 10:54:15 AM 32.7000 -83.4833 292° West 174 200 6,000  Level Atlanta TRACON
Wed 10:55:27 AM 32.7167 -83.5500 287° West 173 199 6,000  Level Atlanta TRACON
Wed 10:56:21 AM 32.7167 -83.6000 270° West 176 203 6,000  Level Atlanta TRACON
Wed 10:57:27 AM 32.7333 -83.6500 292° West 174 200 6,000  Level Atlanta TRACON
Wed 10:58:21 AM 32.7500 -83.7000 292° West 175 201 6,000  Level Atlanta TRACON
Wed 10:59:21 AM 32.7667 -83.7500 292° West 174 200 6,000  Level Atlanta TRACON
Wed 11:00:21 AM 32.7667 -83.8167 270° West 176 203 6,000 -50 Level Atlanta TRACON
Wed 11:01:21 AM 32.7833 -83.8667 292° West 176 203 5,900  Descending Atlanta TRACON
Wed 11:02:27 AM 32.8000 -83.9333 287° West 176 203 6,000 50 Climbing Atlanta TRACON
Wed 11:03:21 AM 32.8000 -83.9833 270° West 177 204 6,000  Level Atlanta TRACON
Wed 11:04:21 AM 32.8167 -84.0500 287° West 176 203 6,000 -50 Level Atlanta TRACON
Wed 11:05:21 AM 32.8333 -84.1000 292° West 177 204 5,900 -50 Descending Atlanta TRACON
Wed 11:06:21 AM 32.8333 -84.1667 270° West 177 204 5,900  Level Atlanta TRACON
Wed 11:07:27 AM 32.8500 -84.2167 292° West 176 203 5,900  Level Atlanta TRACON
Wed 11:08:21 AM 32.8667 -84.2667 292° West 176 203 5,900 50 Level Atlanta TRACON
Wed 11:09:27 AM 32.8833 -84.3333 287° West 175 201 6,000 50 Climbing Atlanta TRACON
Wed 11:10:21 AM 32.8833 -84.3833 270° West 180 207 6,000  Level Atlanta TRACON
Wed 11:11:21 AM 32.9000 -84.4333 292° West 175 201 6,000  Level Atlanta TRACON
Wed 11:12:27 AM 32.9167 -84.5000 287° West 179 206 6,000  Level Atlanta TRACON
Wed 11:13:27 AM 32.9167 -84.5667 270° West 177 204 6,000  Level Atlanta TRACON
Wed 11:14:21 AM 32.9333 -84.6167 292° West 178 205 6,000  Level Atlanta TRACON
Wed 11:15:21 AM 32.9500 -84.6667 292° West 181 208 6,000  Level Atlanta TRACON
Wed 11:16:21 AM 32.9500 -84.7333 270° West 180 207 6,000  Level Atlanta TRACON
Wed 11:17:21 AM 32.9667 -84.7833 292° West 179 206 6,000  Level Atlanta TRACON
Wed 11:18:21 AM 32.9833 -84.8333 292° West 177 204 6,000  Level Atlanta TRACON
Wed 11:19:09 AM 32.9856 -84.8833 273° West 190 219 6,000  Level Atlanta Center
Wed 11:20:09 AM 32.9978 -84.9403 284° West 184 212 6,000  Level Atlanta Center
Wed 11:21:10 AM 33.0119 -85.0050 285° West 179 206 6,000  Level Atlanta Center
Wed 11:22:09 AM 33.0219 -85.0594 282° West 179 206 6,000  Level Atlanta Center
Wed 11:23:09 AM 33.0319 -85.1167 282° West 179 206 6,000  Level Atlanta Center
Wed 11:24:09 AM 33.0439 -85.1714 285° West 184 212 6,000 -50 Level Atlanta Center
Wed 11:25:09 AM 33.0600 -85.2311 288° West 184 212 5,900 -50 Descending Atlanta Center
Wed 11:26:09 AM 33.0867 -85.2761 305° West 178 205 5,900  Level Atlanta Center
Wed 11:27:09 AM 33.1133 -85.3261 302° West 178 205 5,900  Level Atlanta Center
Wed 11:28:09 AM 33.1358 -85.3783 297° West 178 205 5,900  Level Atlanta Center
Wed 11:29:09 AM 33.1583 -85.4233 301° West 178 205 5,900 50 Level Atlanta Center
Wed 11:30:09 AM 33.1828 -85.4733 300° West 171 197 6,000 50 Climbing Atlanta Center
Wed 11:31:09 AM 33.2072 -85.5261 299° West 171 197 6,000  Level Atlanta Center
Wed 11:32:09 AM 33.2294 -85.5736 299° West 171 197 6,000  Level Atlanta Center
Wed 11:33:09 AM 33.2558 -85.6261 301° West 176 203 6,000  Level Atlanta Center
Wed 11:34:09 AM 33.2803 -85.6739 301° West 176 203 6,000  Level Atlanta Center
Wed 11:34:48 AM 33.2925 -85.7064 294° West 174 200 6,000  Level Atlanta Center
Wed 11:35:09 AM 33.3028 -85.7214 309° West 176 203 6,000 -218 Level Atlanta Center
Wed 11:35:43 AM 33.3128 -85.7464 296° West 173 199 5,800 -600 Descending Atlanta Center
Wed 11:36:09 AM 33.3292 -85.7767 303° West 185 213 5,400 -689 Descending Atlanta Center
Wed 11:36:44 AM 33.3411 -85.8067 295° West 175 201 5,100 -500 Descending Atlanta Center
Wed 11:37:09 AM 33.3556 -85.8269 310° West 185 213 4,900 -909 Descending Atlanta Center
Wed 11:37:50 AM 33.3697 -85.8594 298° West 182 209 4,100 -800 Descending Atlanta Center
Wed 11:38:09 AM 33.3819 -85.8822 303° West 185 213 4,100  Level Atlanta Center
Wed 11:39:09 AM 33.4039 -85.9325 298° West 185 213 4,100  Level Atlanta Center
Wed 11:40:09 AM 33.4303 -85.9903 299° West 185 213 4,100  Level Atlanta Center
Wed 11:41:09 AM 33.4544 -86.0456 298° West 185 213 4,100  Level Atlanta Center
Wed 11:42:09 AM 33.4606 -86.0583 300° West 185 213 4,100  Level Atlanta Center
Wed 11:44:09 AM 33.4606 -86.0583 212° Southwest 185 213 4,100  Level Atlanta Center
Wed 11:46:00 AM 33.5018 -86.1502 298° West  Level FlightAware Approximate
Wed 11:53:00 AM 33.5500 -86.2333 309° West  Level FlightAware Approximate
Wed 11:54:00 AM 33.5588 -86.2491 309° West  Level Estimated
Wed 11:55:00 AM 33.5588 -86.2491 309° West  Level Estimated
Wed 11:56:00 AM 33.5588 -86.2491 309° West  Level Estimated

Login

Don't have an account? Register now (free) for customized features, flight alerts, and more!